Time;durP1;ratioP1;P1;durP2;ratioP2;P2;SDS_P1;SDS_P2;PMS_P1;PMS_P2;Temp;Humidity;BMP_temperature;BMP_pressure;BME280_temperature;BME280_humidity;BME280_pressure;Samples;Min_cycle;Max_cycle;Signal;HPM_P1;HPM_P2
2024/03/16 00:00:09;;;;;;;56.63;2.83;;;;;;;;;;5010784;28;20442;-69
2024/03/16 00:02:36;;;;;;;55.43;2.53;;;;;;;;;;5010587;28;20478;-69
2024/03/16 00:05:04;;;;;;;57.00;2.37;;;;;;;;;;5010596;28;20453;-69
2024/03/16 00:07:31;;;;;;;56.10;2.60;;;;;;;;;;5010416;28;20992;-70
2024/03/16 00:09:58;;;;;;;58.60;2.53;;;;;;;;;;5010686;28;20489;-70
2024/03/16 00:12:25;;;;;;;55.80;2.50;;;;;;;;;;5010574;28;20946;-70
2024/03/16 00:14:52;;;;;;;55.33;2.40;;;;;;;;;;5010694;28;20946;-70
2024/03/16 00:17:20;;;;;;;55.73;2.30;;;;;;;;;;5019733;28;20480;-69
2024/03/16 00:19:48;;;;;;;56.37;2.30;;;;;;;;;;5030379;28;20456;-69
2024/03/16 00:22:15;;;;;;;56.40;2.57;;;;;;;;;;5030305;28;21004;-70
2024/03/16 00:24:43;;;;;;;55.67;2.13;;;;;;;;;;5030131;28;20449;-70
2024/03/16 00:27:10;;;;;;;56.17;2.40;;;;;;;;;;5033010;28;20535;-69
2024/03/16 00:29:37;;;;;;;56.10;2.30;;;;;;;;;;5034275;28;20450;-70
2024/03/16 00:32:04;;;;;;;55.70;2.30;;;;;;;;;;5033958;28;20452;-70
2024/03/16 00:34:32;;;;;;;56.47;2.50;;;;;;;;;;5034025;28;20946;-69
2024/03/16 00:37:04;;;;;;;57.30;2.50;;;;;;;;;;5033810;28;20575;-70
2024/03/16 00:39:31;;;;;;;57.87;3.10;;;;;;;;;;5034279;28;20448;-70
2024/03/16 00:41:58;;;;;;;55.90;2.40;;;;;;;;;;5034143;28;20453;-69
2024/03/16 00:44:26;;;;;;;55.53;2.30;;;;;;;;;;5034067;28;20527;-70
2024/03/16 00:46:52;;;;;;;55.47;2.30;;;;;;;;;;5033848;28;20468;-67
2024/03/16 00:49:19;;;;;;;55.60;2.40;;;;;;;;;;5034084;28;20475;-69
2024/03/16 00:51:46;;;;;;;55.30;2.20;;;;;;;;;;5033970;28;20818;-70
2024/03/16 00:54:13;;;;;;;56.20;2.53;;;;;;;;;;5033816;28;20820;-70
2024/03/16 00:56:41;;;;;;;56.30;2.10;;;;;;;;;;5033731;28;20442;-69
2024/03/16 00:59:08;;;;;;;55.37;2.60;;;;;;;;;;5033597;28;20539;-69
2024/03/16 01:01:35;;;;;;;55.43;2.20;;;;;;;;;;5014378;28;20442;-69
2024/03/16 01:04:03;;;;;;;55.60;2.23;;;;;;;;;;5014185;28;20503;-69
2024/03/16 01:06:30;;;;;;;55.77;2.60;;;;;;;;;;5013634;28;20574;-69
2024/03/16 01:08:57;;;;;;;55.57;2.33;;;;;;;;;;5027963;28;20449;-70
2024/03/16 01:11:24;;;;;;;55.17;2.20;;;;;;;;;;5008136;28;20451;-69
2024/03/16 01:13:51;;;;;;;56.07;2.23;;;;;;;;;;5023815;28;20445;-69
2024/03/16 01:16:18;;;;;;;57.77;2.50;;;;;;;;;;5030223;28;20544;-69
2024/03/16 01:18:45;;;;;;;56.37;2.30;;;;;;;;;;5013523;28;20466;-69
2024/03/16 01:21:13;;;;;;;55.40;2.20;;;;;;;;;;5013733;28;20454;-69
2024/03/16 01:23:40;;;;;;;56.20;2.20;;;;;;;;;;5012230;28;20490;-69
2024/03/16 01:26:08;;;;;;;55.60;1.97;;;;;;;;;;5020686;28;20957;-69
2024/03/16 01:28:35;;;;;;;55.80;1.90;;;;;;;;;;5024992;28;20466;-69
2024/03/16 01:31:02;;;;;;;56.57;1.90;;;;;;;;;;5015579;28;20454;-69
2024/03/16 01:33:30;;;;;;;56.20;2.17;;;;;;;;;;5015670;28;20439;-69
2024/03/16 01:35:57;;;;;;;55.90;2.23;;;;;;;;;;5027437;28;20450;-69
2024/03/16 01:38:24;;;;;;;56.00;1.97;;;;;;;;;;5020221;28;20478;-69
2024/03/16 01:40:51;;;;;;;57.43;2.30;;;;;;;;;;5013386;28;20457;-69
2024/03/16 01:43:18;;;;;;;55.90;2.40;;;;;;;;;;5013460;28;20576;-69
2024/03/16 01:45:45;;;;;;;55.67;2.20;;;;;;;;;;5014369;28;20830;-69
2024/03/16 01:48:13;;;;;;;57.10;2.40;;;;;;;;;;5029005;28;20991;-69
2024/03/16 01:50:40;;;;;;;55.90;2.30;;;;;;;;;;5004764;28;20558;-69
2024/03/16 01:53:09;;;;;;;57.00;2.47;;;;;;;;;;5028679;28;20438;-69
2024/03/16 01:55:36;;;;;;;55.27;2.20;;;;;;;;;;5024980;28;20481;-69
2024/03/16 01:58:04;;;;;;;55.70;1.97;;;;;;;;;;5032893;28;20461;-69
2024/03/16 02:00:31;;;;;;;55.13;2.10;;;;;;;;;;5022488;28;20509;-69
2024/03/16 02:02:58;;;;;;;55.57;2.00;;;;;;;;;;5012993;28;20455;-69
2024/03/16 02:05:25;;;;;;;55.80;2.30;;;;;;;;;;5013072;28;20442;-69
2024/03/16 02:07:52;;;;;;;55.27;2.10;;;;;;;;;;5012347;28;20989;-69
2024/03/16 02:10:19;;;;;;;55.47;2.23;;;;;;;;;;5017486;28;20446;-69
2024/03/16 02:12:47;;;;;;;56.50;2.00;;;;;;;;;;5015556;28;20455;-69
2024/03/16 02:15:14;;;;;;;56.20;2.40;;;;;;;;;;5028836;28;20539;-69
2024/03/16 02:17:41;;;;;;;56.97;2.23;;;;;;;;;;5020861;28;20467;-69
2024/03/16 02:20:15;;;;;;;56.17;2.20;;;;;;;;;;5012631;28;20533;-69
2024/03/16 02:22:42;;;;;;;55.97;2.13;;;;;;;;;;5020434;28;20541;-69
2024/03/16 02:25:09;;;;;;;56.07;2.30;;;;;;;;;;5012683;28;20493;-69
2024/03/16 02:27:37;;;;;;;55.07;1.90;;;;;;;;;;5020142;28;20470;-69
2024/03/16 02:30:05;;;;;;;55.37;1.93;;;;;;;;;;5012923;28;20486;-69
2024/03/16 02:32:32;;;;;;;56.10;2.23;;;;;;;;;;5012447;28;20455;-69
2024/03/16 02:34:59;;;;;;;55.60;2.03;;;;;;;;;;5014750;28;20460;-69
2024/03/16 02:37:26;;;;;;;55.97;2.20;;;;;;;;;;5020337;28;20559;-70
2024/03/16 02:39:53;;;;;;;56.50;2.60;;;;;;;;;;5012528;28;20539;-69
2024/03/16 02:42:21;;;;;;;55.80;2.10;;;;;;;;;;5012044;28;20457;-69
2024/03/16 02:44:48;;;;;;;55.57;2.00;;;;;;;;;;5020300;28;20496;-69
2024/03/16 02:47:15;;;;;;;55.17;2.00;;;;;;;;;;5019673;28;20579;-69
2024/03/16 02:49:43;;;;;;;57.00;2.00;;;;;;;;;;5015024;28;20457;-69
2024/03/16 02:52:10;;;;;;;55.17;2.00;;;;;;;;;;5023232;28;20453;-69
2024/03/16 02:54:38;;;;;;;56.00;2.17;;;;;;;;;;5031353;28;20560;-69
2024/03/16 02:57:05;;;;;;;55.50;2.20;;;;;;;;;;5023382;28;20492;-69
2024/03/16 02:59:32;;;;;;;56.30;2.40;;;;;;;;;;5013522;28;20454;-69
2024/03/16 03:01:59;;;;;;;56.73;2.10;;;;;;;;;;5011706;28;20458;-69
2024/03/16 03:04:26;;;;;;;55.47;1.90;;;;;;;;;;5011872;28;20490;-69
2024/03/16 03:06:54;;;;;;;56.00;1.93;;;;;;;;;;5011548;28;20464;-69
2024/03/16 03:09:21;;;;;;;55.67;2.00;;;;;;;;;;5011857;28;20943;-69
2024/03/16 03:11:48;;;;;;;56.00;2.53;;;;;;;;;;5017041;28;20507;-69
2024/03/16 03:14:16;;;;;;;55.70;2.10;;;;;;;;;;5019388;28;20532;-69
2024/03/16 03:16:43;;;;;;;56.17;2.03;;;;;;;;;;5027660;28;20959;-69
2024/03/16 03:19:10;;;;;;;56.20;2.03;;;;;;;;;;5020287;28;20449;-69
2024/03/16 03:21:38;;;;;;;56.30;2.10;;;;;;;;;;5021654;28;20552;-69
2024/03/16 03:24:05;;;;;;;56.50;2.10;;;;;;;;;;5015129;28;20489;-68
2024/03/16 03:26:32;;;;;;;55.13;2.00;;;;;;;;;;5027125;28;20930;-69
2024/03/16 03:28:59;;;;;;;55.90;2.30;;;;;;;;;;5022834;28;20981;-69
2024/03/16 03:31:27;;;;;;;55.40;1.90;;;;;;;;;;5021294;28;20454;-70
2024/03/16 03:33:54;;;;;;;56.37;1.93;;;;;;;;;;5015723;28;20495;-69
2024/03/16 03:36:21;;;;;;;55.37;1.90;;;;;;;;;;5014265;28;20549;-69
2024/03/16 03:38:48;;;;;;;55.40;2.30;;;;;;;;;;5014830;28;20450;-69
2024/03/16 03:41:18;;;;;;;55.67;1.93;;;;;;;;;;5030221;28;20467;-69
2024/03/16 03:43:47;;;;;;;55.70;2.30;;;;;;;;;;5014090;28;20489;-69
2024/03/16 03:46:28;;;;;;;56.63;2.23;;;;;;;;;;5030961;28;20950;-69
2024/03/16 03:49:10;;;;;;;56.20;2.20;;;;;;;;;;5009327;28;20910;-69
2024/03/16 03:51:37;;;;;;;55.97;2.07;;;;;;;;;;5020017;28;20496;-69
2024/03/16 03:54:04;;;;;;;56.07;2.47;;;;;;;;;;5018692;28;20997;-69
2024/03/16 03:56:31;;;;;;;58.20;2.70;;;;;;;;;;5011838;28;20465;-70
2024/03/16 03:58:58;;;;;;;57.33;2.73;;;;;;;;;;5011209;28;20661;-68
2024/03/16 04:01:26;;;;;;;58.03;3.10;;;;;;;;;;5009910;28;20493;-69
2024/03/16 04:03:53;;;;;;;56.07;2.20;;;;;;;;;;5014907;28;20856;-68
2024/03/16 04:06:20;;;;;;;55.80;2.10;;;;;;;;;;5030759;28;20504;-68
2024/03/16 04:08:47;;;;;;;56.00;2.50;;;;;;;;;;5004322;28;20450;-69
2024/03/16 04:11:14;;;;;;;58.30;2.40;;;;;;;;;;5025645;28;20450;-69
2024/03/16 04:13:41;;;;;;;55.60;2.40;;;;;;;;;;5012625;28;20449;-68
2024/03/16 04:16:10;;;;;;;55.57;2.33;;;;;;;;;;5022319;28;20456;-68
2024/03/16 04:18:37;;;;;;;56.40;2.50;;;;;;;;;;5021743;28;20484;-68
2024/03/16 04:21:05;;;;;;;56.17;2.40;;;;;;;;;;5023149;28;20528;-69
2024/03/16 04:23:33;;;;;;;56.43;2.57;;;;;;;;;;5018570;28;20500;-69
2024/03/16 04:26:00;;;;;;;56.40;2.20;;;;;;;;;;5015573;28;20457;-69
2024/03/16 04:28:27;;;;;;;57.13;3.00;;;;;;;;;;5013419;28;20467;-69
2024/03/16 04:30:54;;;;;;;55.73;2.50;;;;;;;;;;5010368;28;20465;-68
2024/03/16 04:33:21;;;;;;;56.30;2.27;;;;;;;;;;5014119;28;20552;-69
2024/03/16 04:35:48;;;;;;;56.30;2.47;;;;;;;;;;5031610;28;20484;-69
2024/03/16 04:38:17;;;;;;;55.60;2.50;;;;;;;;;;5023509;28;20484;-68
2024/03/16 04:40:44;;;;;;;55.33;1.87;;;;;;;;;;5019482;28;20462;-68
2024/03/16 04:43:11;;;;;;;55.20;1.77;;;;;;;;;;5017052;28;20459;-69
2024/03/16 04:45:38;;;;;;;55.57;2.10;;;;;;;;;;5015901;28;20490;-68
2024/03/16 04:48:06;;;;;;;57.17;2.30;;;;;;;;;;5024096;28;20462;-68
2024/03/16 04:50:33;;;;;;;55.57;2.50;;;;;;;;;;5029646;28;20457;-68
2024/03/16 04:53:00;;;;;;;61.20;2.43;;;;;;;;;;5016822;28;20457;-68
2024/03/16 04:55:27;;;;;;;58.37;2.30;;;;;;;;;;5013372;28;20450;-68
2024/03/16 04:57:54;;;;;;;56.43;3.00;;;;;;;;;;5016258;28;20467;-68
2024/03/16 05:00:23;;;;;;;56.97;2.80;;;;;;;;;;5018224;28;20464;-69
2024/03/16 05:02:50;;;;;;;56.60;2.80;;;;;;;;;;5007642;28;20457;-69
2024/03/16 05:05:18;;;;;;;61.53;2.60;;;;;;;;;;5014556;28;20681;-69
2024/03/16 05:07:45;;;;;;;56.77;2.40;;;;;;;;;;5017955;28;20586;-69
2024/03/16 05:10:12;;;;;;;57.77;2.57;;;;;;;;;;5010302;28;20453;-69
2024/03/16 05:12:39;;;;;;;58.07;3.10;;;;;;;;;;5011820;28;20540;-69
2024/03/16 05:15:07;;;;;;;56.40;2.70;;;;;;;;;;5022245;28;20534;-69
2024/03/16 05:17:35;;;;;;;56.60;2.57;;;;;;;;;;5030898;28;20471;-69
2024/03/16 05:20:03;;;;;;;59.10;2.67;;;;;;;;;;5033390;28;20453;-69
2024/03/16 05:22:30;;;;;;;57.13;2.77;;;;;;;;;;5030896;28;20823;-69
2024/03/16 05:24:57;;;;;;;56.27;2.83;;;;;;;;;;5017703;28;20863;-69
2024/03/16 05:27:24;;;;;;;57.70;2.83;;;;;;;;;;5013375;28;20573;-69
2024/03/16 05:29:52;;;;;;;56.47;2.80;;;;;;;;;;5005645;28;20449;-69
2024/03/16 05:32:19;;;;;;;58.47;2.93;;;;;;;;;;5013033;28;20458;-69
2024/03/16 05:34:46;;;;;;;60.53;2.73;;;;;;;;;;5008110;28;20527;-69
2024/03/16 05:37:13;;;;;;;55.83;2.80;;;;;;;;;;5021112;28;20485;-70
2024/03/16 05:39:40;;;;;;;57.37;2.80;;;;;;;;;;5022885;28;20459;-69
2024/03/16 05:42:07;;;;;;;56.80;2.90;;;;;;;;;;5012757;28;20461;-69
2024/03/16 05:44:35;;;;;;;56.47;2.70;;;;;;;;;;5022287;28;20489;-69
2024/03/16 05:47:02;;;;;;;56.70;2.60;;;;;;;;;;5023695;28;20858;-69
2024/03/16 05:49:29;;;;;;;58.00;2.60;;;;;;;;;;5017553;28;20805;-69
2024/03/16 05:51:56;;;;;;;56.83;2.90;;;;;;;;;;5014784;28;20545;-69
2024/03/16 05:54:24;;;;;;;55.50;2.80;;;;;;;;;;5021101;28;20799;-69
2024/03/16 05:56:51;;;;;;;56.77;3.03;;;;;;;;;;5012873;28;20478;-69
2024/03/16 05:59:18;;;;;;;58.50;2.77;;;;;;;;;;5021216;28;20446;-69
2024/03/16 06:01:46;;;;;;;56.00;2.50;;;;;;;;;;5023208;28;20529;-69
2024/03/16 06:04:15;;;;;;;56.47;2.60;;;;;;;;;;5032429;28;21008;-69
2024/03/16 06:06:42;;;;;;;56.03;2.63;;;;;;;;;;5032323;28;20476;-68
2024/03/16 06:09:10;;;;;;;56.07;2.50;;;;;;;;;;5032569;28;20454;-69
2024/03/16 06:11:37;;;;;;;56.17;2.30;;;;;;;;;;5032480;28;20458;-69
2024/03/16 06:14:05;;;;;;;56.07;2.67;;;;;;;;;;5031266;28;20445;-69
2024/03/16 06:16:32;;;;;;;56.73;2.90;;;;;;;;;;5020747;28;20442;-69
2024/03/16 06:19:00;;;;;;;56.57;2.77;;;;;;;;;;5012595;28;20447;-69
2024/03/16 06:21:28;;;;;;;56.30;2.43;;;;;;;;;;5012530;28;20452;-69
2024/03/16 06:23:55;;;;;;;55.47;2.50;;;;;;;;;;5004168;28;20447;-69
2024/03/16 06:26:22;;;;;;;56.33;2.63;;;;;;;;;;5019753;28;20488;-69
2024/03/16 06:28:54;;;;;;;55.90;2.67;;;;;;;;;;5023994;28;20450;-69
2024/03/16 06:31:30;;;;;;;55.50;2.50;;;;;;;;;;5032082;28;20450;-69
2024/03/16 06:33:58;;;;;;;57.30;2.50;;;;;;;;;;5020198;28;20446;-69
2024/03/16 06:36:25;;;;;;;56.57;2.40;;;;;;;;;;5012196;28;20441;-69
2024/03/16 06:38:52;;;;;;;55.73;2.03;;;;;;;;;;5012627;28;20549;-69
2024/03/16 06:41:19;;;;;;;57.03;2.40;;;;;;;;;;5012435;28;20460;-69
2024/03/16 06:43:46;;;;;;;57.83;2.70;;;;;;;;;;5020318;28;20447;-69
2024/03/16 06:46:13;;;;;;;57.70;2.97;;;;;;;;;;5020632;28;20819;-69
2024/03/16 06:48:40;;;;;;;55.97;2.27;;;;;;;;;;5012132;28;20462;-69
2024/03/16 06:51:08;;;;;;;56.20;2.90;;;;;;;;;;5025346;28;20449;-69
2024/03/16 06:53:35;;;;;;;57.67;2.43;;;;;;;;;;5015584;28;20450;-69
2024/03/16 06:56:04;;;;;;;57.03;2.30;;;;;;;;;;5031722;28;20760;-69
2024/03/16 06:58:31;;;;;;;55.60;2.27;;;;;;;;;;5031423;28;20473;-69
2024/03/16 07:00:59;;;;;;;57.37;2.47;;;;;;;;;;5019396;28;20458;-69
2024/03/16 07:03:26;;;;;;;55.60;2.10;;;;;;;;;;5019627;28;20464;-69
2024/03/16 07:05:53;;;;;;;56.90;2.50;;;;;;;;;;5012121;28;20490;-69
2024/03/16 07:08:21;;;;;;;56.80;2.50;;;;;;;;;;5026629;28;20491;-68
2024/03/16 07:10:48;;;;;;;56.97;2.93;;;;;;;;;;5023582;28;20540;-68
2024/03/16 07:13:16;;;;;;;56.03;2.30;;;;;;;;;;5031494;28;20449;-68
2024/03/16 07:15:43;;;;;;;57.97;2.53;;;;;;;;;;5013166;28;20447;-68
2024/03/16 07:18:11;;;;;;;55.67;2.43;;;;;;;;;;5011620;28;20474;-68
2024/03/16 07:20:38;;;;;;;56.30;2.20;;;;;;;;;;5011328;28;20483;-69
2024/03/16 07:23:05;;;;;;;57.57;2.80;;;;;;;;;;5011687;28;20438;-69
2024/03/16 07:25:32;;;;;;;56.60;2.67;;;;;;;;;;5011591;28;20496;-69
2024/03/16 07:27:59;;;;;;;56.17;2.60;;;;;;;;;;5030801;28;20475;-68
2024/03/16 07:30:26;;;;;;;55.97;2.50;;;;;;;;;;5030865;28;20479;-68
2024/03/16 07:32:54;;;;;;;55.50;2.20;;;;;;;;;;5030979;28;20819;-68
2024/03/16 07:35:21;;;;;;;55.60;2.30;;;;;;;;;;5030293;28;20458;-68
2024/03/16 07:37:48;;;;;;;56.10;2.37;;;;;;;;;;5030454;28;20524;-68
2024/03/16 07:40:15;;;;;;;58.47;2.30;;;;;;;;;;5030671;28;20454;-68
2024/03/16 07:42:42;;;;;;;57.17;2.63;;;;;;;;;;5030544;28;20803;-68
2024/03/16 07:45:09;;;;;;;56.47;2.57;;;;;;;;;;5030945;28;20861;-69
2024/03/16 07:47:37;;;;;;;56.93;2.77;;;;;;;;;;5030575;28;20498;-69
2024/03/16 07:50:05;;;;;;;57.07;2.23;;;;;;;;;;5017607;28;20518;-69
2024/03/16 07:52:33;;;;;;;55.73;2.33;;;;;;;;;;5010714;28;20513;-69
2024/03/16 07:55:00;;;;;;;56.37;2.20;;;;;;;;;;5022493;28;20453;-68
2024/03/16 07:57:28;;;;;;;55.77;2.40;;;;;;;;;;5020439;28;20468;-68
2024/03/16 07:59:55;;;;;;;56.00;2.33;;;;;;;;;;5011193;28;20814;-68
2024/03/16 08:02:22;;;;;;;56.40;2.60;;;;;;;;;;5010933;28;20522;-69
2024/03/16 08:04:50;;;;;;;58.20;2.80;;;;;;;;;;5010657;28;20445;-70
2024/03/16 08:07:17;;;;;;;57.30;3.13;;;;;;;;;;5010641;28;20463;-70
2024/03/16 08:09:44;;;;;;;56.03;2.50;;;;;;;;;;5010634;28;20450;-70
2024/03/16 08:12:11;;;;;;;56.30;2.67;;;;;;;;;;5015796;28;20453;-69
2024/03/16 08:14:38;;;;;;;56.77;2.60;;;;;;;;;;5030265;28;21017;-69
2024/03/16 08:17:07;;;;;;;57.50;2.80;;;;;;;;;;5030281;28;20469;-69
2024/03/16 08:19:36;;;;;;;56.30;2.40;;;;;;;;;;5030523;28;20458;-69
2024/03/16 08:22:04;;;;;;;56.10;2.37;;;;;;;;;;5030422;28;20453;-69
2024/03/16 08:24:32;;;;;;;55.90;2.40;;;;;;;;;;5030304;28;20531;-69
2024/03/16 08:26:59;;;;;;;56.50;2.63;;;;;;;;;;5022108;28;20497;-69
2024/03/16 08:29:26;;;;;;;56.60;2.87;;;;;;;;;;5030538;28;20479;-69
2024/03/16 08:31:55;;;;;;;56.40;3.00;;;;;;;;;;5030292;28;20821;-69
2024/03/16 08:34:22;;;;;;;56.67;2.57;;;;;;;;;;5023789;28;20446;-69
2024/03/16 08:36:49;;;;;;;56.57;2.70;;;;;;;;;;5010010;28;20478;-69
2024/03/16 08:39:16;;;;;;;56.97;2.57;;;;;;;;;;5010415;28;21011;-69
2024/03/16 08:41:43;;;;;;;57.07;2.53;;;;;;;;;;5010450;28;20450;-69
2024/03/16 08:44:11;;;;;;;57.70;2.40;;;;;;;;;;5010595;28;20458;-69
2024/03/16 08:46:38;;;;;;;57.47;2.73;;;;;;;;;;5010412;28;20493;-69
2024/03/16 08:49:05;;;;;;;55.83;2.30;;;;;;;;;;5014489;28;20442;-69
2024/03/16 08:51:33;;;;;;;56.80;2.70;;;;;;;;;;5022471;28;20486;-69
2024/03/16 08:54:00;;;;;;;57.10;2.40;;;;;;;;;;5033957;28;20449;-69
2024/03/16 08:56:28;;;;;;;56.57;2.50;;;;;;;;;;5018832;28;20449;-69
2024/03/16 08:58:55;;;;;;;58.47;2.50;;;;;;;;;;5030558;28;20480;-69
2024/03/16 09:01:22;;;;;;;56.40;2.37;;;;;;;;;;5020392;28;20449;-70
2024/03/16 09:03:49;;;;;;;57.00;2.40;;;;;;;;;;5023831;28;20541;-70
2024/03/16 09:06:17;;;;;;;55.77;2.20;;;;;;;;;;5014325;28;20493;-70
2024/03/16 09:08:44;;;;;;;56.90;2.33;;;;;;;;;;5013992;28;20458;-69
2024/03/16 09:11:11;;;;;;;56.20;2.23;;;;;;;;;;5022206;28;20457;-70
2024/03/16 09:13:38;;;;;;;56.60;2.23;;;;;;;;;;5014182;28;20485;-70
2024/03/16 09:16:06;;;;;;;59.23;2.70;;;;;;;;;;5017932;28;20457;-70
2024/03/16 09:18:34;;;;;;;55.87;2.13;;;;;;;;;;5025812;28;20996;-70
2024/03/16 09:21:01;;;;;;;56.50;2.30;;;;;;;;;;5030279;28;20850;-70
2024/03/16 09:23:28;;;;;;;57.47;2.17;;;;;;;;;;5020786;28;20446;-69
2024/03/16 09:25:56;;;;;;;56.93;2.30;;;;;;;;;;5033499;28;20486;-70
2024/03/16 09:28:23;;;;;;;56.87;2.50;;;;;;;;;;5033479;28;20504;-69
2024/03/16 09:30:50;;;;;;;58.63;2.57;;;;;;;;;;5016847;28;20537;-70
2024/03/16 09:33:17;;;;;;;55.57;2.10;;;;;;;;;;5033270;28;20448;-70
2024/03/16 09:35:45;;;;;;;56.30;2.10;;;;;;;;;;5033141;28;20448;-70
2024/03/16 09:38:12;;;;;;;55.90;2.60;;;;;;;;;;5028492;28;20561;-69
2024/03/16 09:40:43;;;;;;;56.20;2.03;;;;;;;;;;5029711;28;21016;-69
2024/03/16 09:43:11;;;;;;;56.67;2.20;;;;;;;;;;5024932;28;20493;-69
2024/03/16 09:45:38;;;;;;;55.63;2.23;;;;;;;;;;5033084;28;21009;-70
2024/03/16 09:48:05;;;;;;;55.67;2.00;;;;;;;;;;5021293;28;20470;-70
2024/03/16 09:50:33;;;;;;;55.97;2.23;;;;;;;;;;5020336;28;20446;-70
2024/03/16 09:53:00;;;;;;;55.80;2.20;;;;;;;;;;5032928;28;20543;-70
2024/03/16 09:55:27;;;;;;;55.90;2.40;;;;;;;;;;5024832;28;20810;-70
2024/03/16 09:57:54;;;;;;;56.00;2.00;;;;;;;;;;5032829;28;20516;-70
2024/03/16 10:00:22;;;;;;;56.40;2.20;;;;;;;;;;5032023;28;20450;-70
2024/03/16 10:02:50;;;;;;;59.33;2.30;;;;;;;;;;5032742;28;20458;-70
2024/03/16 10:05:18;;;;;;;55.90;2.00;;;;;;;;;;5032730;28;20492;-70
2024/03/16 10:07:45;;;;;;;56.53;1.80;;;;;;;;;;5031696;28;20472;-70
2024/03/16 10:10:15;;;;;;;55.47;1.90;;;;;;;;;;5012891;28;20866;-70
2024/03/16 10:12:42;;;;;;;56.30;2.00;;;;;;;;;;5012375;28;20458;-70
2024/03/16 10:15:16;;;;;;;55.70;1.80;;;;;;;;;;5012802;28;20454;-70
2024/03/16 10:17:43;;;;;;;55.73;2.10;;;;;;;;;;5012482;28;20476;-70
2024/03/16 10:20:15;;;;;;;57.50;1.80;;;;;;;;;;5007750;28;20469;-70
2024/03/16 10:22:44;;;;;;;58.47;2.23;;;;;;;;;;5013165;28;20979;-70
2024/03/16 10:25:11;;;;;;;56.10;1.83;;;;;;;;;;5020344;28;20474;-70
2024/03/16 10:27:39;;;;;;;58.47;1.90;;;;;;;;;;5019904;28;20569;-70
2024/03/16 10:30:08;;;;;;;55.37;1.67;;;;;;;;;;5008033;28;20512;-70
2024/03/16 10:32:37;;;;;;;55.37;1.70;;;;;;;;;;5013945;28;21009;-70
2024/03/16 10:35:07;;;;;;;55.30;1.90;;;;;;;;;;5022572;28;20942;-70
2024/03/16 10:37:35;;;;;;;55.67;1.80;;;;;;;;;;5015859;28;20486;-70
2024/03/16 10:40:13;;;;;;;56.47;1.90;;;;;;;;;;5020080;28;20450;-70
2024/03/16 10:42:44;;;;;;;55.50;1.60;;;;;;;;;;5011050;28;20497;-70
2024/03/16 10:45:13;;;;;;;56.17;1.90;;;;;;;;;;5012433;28;20536;-70
2024/03/16 10:47:42;;;;;;;56.43;1.77;;;;;;;;;;5016812;28;20546;-70
2024/03/16 10:50:10;;;;;;;56.07;1.80;;;;;;;;;;5011728;28;20446;-70
2024/03/16 10:52:37;;;;;;;55.77;1.90;;;;;;;;;;5011702;28;20454;-70
2024/03/16 10:55:07;;;;;;;55.70;1.90;;;;;;;;;;5011844;28;20443;-70
2024/03/16 10:57:37;;;;;;;55.90;2.10;;;;;;;;;;5019818;28;20466;-70
2024/03/16 11:00:12;;;;;;;55.37;1.90;;;;;;;;;;5011342;28;20443;-70
2024/03/16 11:02:39;;;;;;;56.63;2.10;;;;;;;;;;5019494;28;20445;-70
2024/03/16 11:05:14;;;;;;;58.27;2.30;;;;;;;;;;5014966;28;20946;-70
2024/03/16 11:07:41;;;;;;;56.00;1.90;;;;;;;;;;5016629;28;21006;-69
2024/03/16 11:10:10;;;;;;;56.07;1.73;;;;;;;;;;5008094;28;20454;-70
2024/03/16 11:12:37;;;;;;;55.70;1.83;;;;;;;;;;5019477;28;20447;-70
2024/03/16 11:15:22;;;;;;;56.13;2.20;;;;;;;;;;5023413;28;20450;-70
2024/03/16 11:17:49;;;;;;;55.77;2.00;;;;;;;;;;5006804;28;20475;-70
2024/03/16 11:20:36;;;;;;;56.27;2.30;;;;;;;;;;5022359;28;20456;-70
2024/03/16 11:23:03;;;;;;;56.63;2.10;;;;;;;;;;5019378;28;20454;-70
2024/03/16 11:25:31;;;;;;;56.37;1.80;;;;;;;;;;5016724;28;20442;-70
2024/03/16 11:27:59;;;;;;;56.83;2.80;;;;;;;;;;5014627;28;20511;-70
2024/03/16 11:30:25;;;;;;;56.20;1.87;;;;;;;;;;5009993;28;20469;-70
2024/03/16 11:32:52;;;;;;;56.00;1.87;;;;;;;;;;5012911;28;20453;-70
2024/03/16 11:35:18;;;;;;;56.93;2.00;;;;;;;;;;5015899;28;20455;-69
2024/03/16 11:37:45;;;;;;;55.90;1.90;;;;;;;;;;5010271;28;20478;-68
2024/03/16 11:40:11;;;;;;;55.43;1.70;;;;;;;;;;5008931;28;20457;-70
2024/03/16 11:42:39;;;;;;;56.30;1.77;;;;;;;;;;5010328;28;20462;-71
2024/03/16 11:45:07;;;;;;;55.40;1.77;;;;;;;;;;5013897;28;20447;-70
2024/03/16 11:47:34;;;;;;;55.70;2.03;;;;;;;;;;5015402;28;20486;-71
2024/03/16 11:50:00;;;;;;;55.50;1.80;;;;;;;;;;5016669;28;20547;-70
2024/03/16 11:52:28;;;;;;;55.77;1.90;;;;;;;;;;5010891;28;20831;-70
2024/03/16 11:54:54;;;;;;;56.77;2.10;;;;;;;;;;5018698;28;21208;-70
2024/03/16 11:57:21;;;;;;;55.97;1.90;;;;;;;;;;5006001;28;20528;-70
2024/03/16 11:59:48;;;;;;;55.87;2.00;;;;;;;;;;5011740;28;20442;-70
2024/03/16 12:02:15;;;;;;;55.50;1.97;;;;;;;;;;5018161;28;20454;-70
2024/03/16 12:04:42;;;;;;;55.40;1.80;;;;;;;;;;5010860;28;20453;-70
2024/03/16 12:07:09;;;;;;;55.37;1.70;;;;;;;;;;5010230;28;20577;-70
2024/03/16 12:09:36;;;;;;;55.50;1.70;;;;;;;;;;5010912;28;20466;-70
2024/03/16 12:12:03;;;;;;;56.93;1.80;;;;;;;;;;5010766;28;20451;-70
2024/03/16 12:14:31;;;;;;;55.53;1.83;;;;;;;;;;5010667;28;20954;-69
2024/03/16 12:16:57;;;;;;;55.80;1.80;;;;;;;;;;5010259;28;20471;-71
2024/03/16 12:19:25;;;;;;;55.90;1.90;;;;;;;;;;5010583;28;20913;-69
2024/03/16 12:21:51;;;;;;;55.50;1.87;;;;;;;;;;5009884;28;20831;-70
2024/03/16 12:24:18;;;;;;;55.23;2.03;;;;;;;;;;5010835;28;20450;-71
2024/03/16 12:26:44;;;;;;;55.30;1.80;;;;;;;;;;5010327;28;20548;-71
2024/03/16 12:29:11;;;;;;;55.50;1.80;;;;;;;;;;5010494;28;20974;-71
2024/03/16 12:31:38;;;;;;;56.00;1.80;;;;;;;;;;5010383;28;20455;-71
2024/03/16 12:34:05;;;;;;;58.10;2.17;;;;;;;;;;5010218;28;20451;-69
2024/03/16 12:36:31;;;;;;;55.50;1.90;;;;;;;;;;5015924;28;20454;-71
2024/03/16 12:38:58;;;;;;;55.33;1.83;;;;;;;;;;5030200;28;20559;-71
2024/03/16 12:41:26;;;;;;;56.53;2.00;;;;;;;;;;5016818;28;20459;-71
2024/03/16 12:43:52;;;;;;;55.90;2.20;;;;;;;;;;5010394;28;20447;-69
2024/03/16 12:46:19;;;;;;;56.20;2.27;;;;;;;;;;5010296;28;20902;-70
2024/03/16 12:48:46;;;;;;;55.57;2.00;;;;;;;;;;5009964;28;21001;-70
2024/03/16 12:51:12;;;;;;;56.00;2.10;;;;;;;;;;5010293;28;20459;-71
2024/03/16 12:53:39;;;;;;;55.90;2.30;;;;;;;;;;5025419;28;20450;-70
2024/03/16 12:56:07;;;;;;;55.47;1.80;;;;;;;;;;5030184;28;20453;-69
2024/03/16 12:58:35;;;;;;;56.10;2.10;;;;;;;;;;5029746;28;20477;-69
2024/03/16 13:01:01;;;;;;;55.70;1.87;;;;;;;;;;5029869;28;20476;-70
2024/03/16 13:03:28;;;;;;;55.73;2.10;;;;;;;;;;5030186;28;20499;-70
2024/03/16 13:05:54;;;;;;;55.50;1.80;;;;;;;;;;5029972;28;20461;-70
2024/03/16 13:08:21;;;;;;;55.47;1.93;;;;;;;;;;5029878;28;20476;-70
2024/03/16 13:10:47;;;;;;;55.60;1.80;;;;;;;;;;5029841;28;20449;-70
2024/03/16 13:13:15;;;;;;;56.47;1.97;;;;;;;;;;5029986;28;20446;-70
2024/03/16 13:15:41;;;;;;;55.70;1.90;;;;;;;;;;5014490;28;20533;-71
2024/03/16 13:18:08;;;;;;;55.30;1.70;;;;;;;;;;5009732;28;20818;-70
2024/03/16 13:20:34;;;;;;;55.60;1.77;;;;;;;;;;5010237;28;20447;-70
2024/03/16 13:23:02;;;;;;;55.70;1.87;;;;;;;;;;5009969;28;20455;-70
2024/03/16 13:25:28;;;;;;;55.80;2.00;;;;;;;;;;5010224;28;20553;-71
2024/03/16 13:27:56;;;;;;;56.20;2.00;;;;;;;;;;5009628;28;20486;-71
2024/03/16 13:30:22;;;;;;;56.40;2.23;;;;;;;;;;5022551;28;20561;-70
2024/03/16 13:32:49;;;;;;;55.70;2.37;;;;;;;;;;5029648;28;20449;-70
2024/03/16 13:35:16;;;;;;;55.57;1.93;;;;;;;;;;5012870;28;20457;-71
2024/03/16 13:37:44;;;;;;;56.00;1.67;;;;;;;;;;5012656;28;20572;-68
2024/03/16 13:40:11;;;;;;;56.37;2.00;;;;;;;;;;5012991;28;20461;-71
2024/03/16 13:42:39;;;;;;;55.87;1.90;;;;;;;;;;5023479;28;20521;-70
2024/03/16 13:45:07;;;;;;;55.57;1.80;;;;;;;;;;5024486;28;20454;-72
2024/03/16 13:47:35;;;;;;;55.40;1.70;;;;;;;;;;5033022;28;20565;-70
2024/03/16 13:50:03;;;;;;;56.47;1.93;;;;;;;;;;5021140;28;20454;-70
2024/03/16 13:52:30;;;;;;;55.50;1.83;;;;;;;;;;5015012;28;20455;-70
2024/03/16 13:54:57;;;;;;;55.87;1.97;;;;;;;;;;5021311;28;20826;-70
2024/03/16 13:57:24;;;;;;;55.80;2.00;;;;;;;;;;5012977;28;20473;-70
2024/03/16 13:59:50;;;;;;;55.40;2.03;;;;;;;;;;5018770;28;20829;-70
2024/03/16 14:02:18;;;;;;;55.30;2.30;;;;;;;;;;5020361;28;20446;-70
2024/03/16 14:04:44;;;;;;;55.70;2.20;;;;;;;;;;5021332;28;20460;-70
2024/03/16 14:07:11;;;;;;;57.33;2.17;;;;;;;;;;5012382;28;20497;-70
2024/03/16 14:09:38;;;;;;;57.03;2.30;;;;;;;;;;5013142;28;20443;-71
2024/03/16 14:12:06;;;;;;;55.70;2.20;;;;;;;;;;5022672;28;20458;-70
2024/03/16 14:14:32;;;;;;;55.23;2.00;;;;;;;;;;5026908;28;20935;-70
2024/03/16 14:17:00;;;;;;;55.63;2.27;;;;;;;;;;5021660;28;20489;-70
2024/03/16 14:19:26;;;;;;;55.90;1.80;;;;;;;;;;5027876;28;20546;-70
2024/03/16 14:21:54;;;;;;;55.67;2.00;;;;;;;;;;5012622;28;20455;-70
2024/03/16 14:24:20;;;;;;;55.47;2.13;;;;;;;;;;5020788;28;20446;-70
2024/03/16 14:26:47;;;;;;;55.60;2.10;;;;;;;;;;5012177;28;20490;-70
2024/03/16 14:29:13;;;;;;;55.73;2.10;;;;;;;;;;5029023;28;20566;-70
2024/03/16 14:31:40;;;;;;;56.10;2.20;;;;;;;;;;5012645;28;20454;-70